WEATHER DATA

YESTERDAY
Time Temp. Dewp. Hum. Wind dir Wind speed Wind gust Bar. 1h Prec. 24h Prec.
00:08 13.7 0.4 40 270 0.6 1.1 1019.4 0.0000 0.0000
00:18 13.5 0.2 40 270 0.6 1.4 1019.3 0.0000 0.0000
00:28 13.4 0.1 40 270 0.6 1.1 1019.4 0.0000 0.0000
00:38 13.3 0 40 270 0.6 1.1 1019.3 0.0000 0.0000
00:48 13.2 0.2 41 270 0.6 0.8 1019.3 0.0000 0.0000
00:58 13.2 0.2 41 270 0.6 1.1 1019.3 0.0000 0.0000
01:08 13.1 0.2 41 270 0.6 1.1 1019.3 0.0000 0.0000
01:18 13 0.1 41 270 0.6 0.8 1019.2 0.0000 0.0000
01:29 13 -0.2 40 270 0.6 1.1 1019.2 0.0000 0.0000
01:48 13.1 -0.5 39 270 0.3 0.8 1019.1 0.0000 0.0000
01:59 13.1 -0.5 39 270 0.6 0.8 1019.1 0.0000 0.0000
02:09 13.1 -0.5 39 270 0.6 0.8 1019.1 0.0000 0.0000
02:19 13 -0.2 40 270 0.6 0.8 1019.1 0.0000 0.0000
02:29 12.9 0 41 270 0.6 0.8 1019.1 0.0000 0.0000
02:40 12.8 -0.1 41 270 0.6 1.1 1019.1 0.0000 0.0000
02:50 12.7 -0.2 41 270 0.6 1.1 1019 0.0000 0.0000
02:59 12.6 -0.3 41 270 0.6 1.1 1018.9 0.0000 0.0000
03:10 12.5 0 42 270 0.6 1.1 1018.8 0.0000 0.0000
03:20 12.4 -0.1 42 270 0.6 1.1 1018.8 0.0000 0.0000
03:30 12.3 -0.2 42 270 0.6 0.8 1018.8 0.0000 0.0000
03:40 12.3 -0.2 42 270 0.6 0.8 1018.7 0.0000 0.0000
03:50 12.2 -0.3 42 270 0.6 0.8 1018.7 0.0000 0.0000
04:00 12.1 -0.4 42 270 0.6 1.1 1018.7 0.0000 0.0000
04:10 12 -0.4 42 270 0.6 0.8 1018.7 0.0000 0.0000
04:20 12 -1 40 270 0.6 0.8 1018.6 0.0000 0.0000
04:31 12 -1 40 270 0.3 0.8 1018.4 0.0000 0.0000
04:41 12.1 -1.3 39 270 0.3 1.1 1018.4 0.0000 0.0000
04:50 12 -0.4 42 270 0.3 0.8 1018.4 0.0000 0.0000
05:01 11.9 -0.5 42 270 0.6 0.8 1018.6 0.0000 0.0000
05:11 11.7 -0.4 43 270 0.6 0.8 1018.6 0.0000 0.0000
05:21 11.6 -0.5 43 270 0.6 1.1 1018.6 0.0000 0.0000
05:31 11.4 -0.4 44 135 0.3 0.8 1018.6 0.0000 0.0000
05:42 12.4 0.2 43 270 0.6 0.8 1018.4 0.0000 0.0000
05:52 12 -0.2 43 270 0.6 1.1 1018.4 0.0000 0.0000
06:01 12.1 1.7 49 270 0.6 1.1 1018.8 0.0000 0.0000
06:12 12.5 0 42 270 0.3 0.8 1018.6 0.0000 0.0000
06:22 12.9 0 41 270 0.6 1.1 1018.4 0.0000 0.0000
06:32 12.2 -0.3 42 270 0.6 1.1 1018.3 0.0000 0.0000
06:42 12.6 -0.3 41 270 0.3 0.6 1018.3 0.0000 0.0000
06:52 12.1 -0.7 41 270 0.6 1.1 1018.3 0.0000 0.0000
07:02 11.7 -1 41 270 0.6 1.1 1018.2 0.0000 0.0000
07:12 11.5 -0.8 42 270 0.6 1.4 1018.2 0.0000 0.0000
07:23 11.3 -0.2 45 180 0.3 0.6 1018.3 0.0000 0.0000
07:33 11.3 -0.2 45 180 0.3 0.6 1018.3 0.0000 0.0000
07:43 11.1 -0.3 45 0 0.6 1018.4 0.0000 0.0000
08:03 10.8 -0.8 44 0 0.6 1018.7 0.0000 0.0000
08:13 10.8 -0.6 45 0.3 0.8 1018.7 0.0000 0.0000
08:23 10.9 -0.8 44 0 0.6 1018.7 0.0000 0.0000
08:33 11.1 -0.6 44 270 0.3 0.8 1018.6 0.0000 0.0000
08:44 11.3 -1.3 41 270 0.3 0.8 1018.6 0.0000 0.0000
08:54 11.6 -0.5 43 225 0.3 0.6 1018.6 0.0000 0.0000
09:04 11.8 -0.6 42 270 0.3 0.6 1018.6 0.0000 0.0000
09:14 12 -0.2 43 216 0.3 0.6 1018.6 0.0000 0.0000
09:24 12.1 -0.7 41 225 0.3 0.6 1018.7 0.0000 0.0000
09:34 12.6 0.7 44 161 0.3 0.6 1018.6 0.0000 0.0000
09:44 13.1 1.4 45 217 0.3 0.8 1018.6 0.0000 0.0000
09:55 13.6 1.6 44 231 0.6 0.8 1018.6 0.0000 0.0000
10:05 14 2 44 270 0.6 1.1 1018.6 0.0000 0.0000
10:14 14.5 2.1 43 241 0.6 0.8 1018.6 0.0000 0.0000
10:25 15.1 2.6 43 213 0.3 0.6 1018.4 0.0000 0.0000
10:35 15.7 2.8 42 225 0.3 0.6 1018.3 0.0000 0.0000
10:45 16.3 3.4 42 225 0.3 0.6 1018.3 0.0000 0.0000
10:55 17 3.7 41 270 0.3 0.6 1018.3 0.0000 0.0000
11:06 17.6 3.9 40 270 0.3 0.6 1018.2 0.0000 0.0000
11:16 18.3 4.1 39 270 0.3 0.6 1018.2 0.0000 0.0000
11:25 18.9 4.7 39 270 0.3 0.6 1018.1 0.0000 0.0000
11:35 19.5 4.8 38 225 0.3 0.6 1018 0.0000 0.0000
11:46 20.1 5 37 135 0.3 0.6 1018 0.0000 0.0000
11:56 20.7 5.1 36 180 0.3 0.6 1017.8 0.0000 0.0000
12:06 21.3 5.6 36 315 0.3 0.6 1017.6 0.0000 0.0000
12:16 21.9 5.3 34 161 0.3 0.6 1017.5 0.0000 0.0000
12:26 22.3 5.7 34 90 0.3 0.6 1017.4 0.0000 0.0000
12:36 22.8 5.3 32 90 0.3 0.6 1017.3 0.0000 0.0000
12:46 23.2 5.6 32 90 0.3 0.8 1017.1 0.0000 0.0000
12:57 23.5 5.9 32 90 0.3 0.8 1017 0.0000 0.0000
13:07 23.7 5.1 30 180 0.3 1.1 1016.9 0.0000 0.0000
13:17 23.7 5.1 30 161 0.3 0.8 1016.8 0.0000 0.0000
13:27 23.9 5.3 30 315 0.3 0.6 1016.6 0.0000 0.0000
13:37 24.1 5.5 30 180 0.3 0.8 1016.4 0.0000 0.0000
13:47 24.3 5.1 29 144 0.3 0.8 1016.3 0.0000 0.0000
13:57 24.5 5.8 30 90 0.3 0.6 1016.2 0.0000 0.0000
14:08 24.8 5.6 29 90 0.3 0.6 1016 0.0000 0.0000
14:19 25.1 5.3 28 90 0.3 0.6 1015.9 0.0000 0.0000
14:28 25.2 4.9 27 90 0.3 0.6 1015.8 0.0000 0.0000
14:38 25.5 5.1 27 90 0.3 0.6 1015.8 0.0000 0.0000
14:49 25.7 5.3 27 90 0.3 0.6 1015.7 0.0000 0.0000
14:59 25.8 5.4 27 90 0.3 0.6 1015.6 0.0000 0.0000
15:09 26 5.6 27 59 0.3 0.6 1015.5 0.0000 0.0000
15:19 26.1 5.7 27 90 0.3 0.6 1015.5 0.0000 0.0000
15:30 26.1 5.7 27 90 0.3 0.6 1015.5 0.0000 0.0000
15:39 26 5 26 90 0.3 0.6 1015.4 0.0000 0.0000
15:49 25.9 4.9 26 90 0.3 0.6 1015.4 0.0000 0.0000
15:59 25.6 4.7 26 90 0.3 0.6 1015.3 0.0000 0.0000
16:10 25.3 5 27 90 0.3 0.6 1015.2 0.0000 0.0000
16:20 24.9 4.6 27 135 0.3 0.8 1015.1 0.0000 0.0000
16:30 24.4 4.2 27 153 0.3 1.1 1015 0.0000 0.0000
16:40 23.8 3.7 27 90 0.3 0.8 1014.9 0.0000 0.0000
16:50 23.3 3.3 27 135 0.3 0.6 1014.9 0.0000 0.0000
17:00 22.8 5.7 33 90 0.3 0.8 1014.9 0.0000 0.0000
17:10 22.5 3.1 28 198 0.3 0.6 1014.9 0.0000 0.0000
17:21 21.9 3.1 29 203 0.3 0.6 1014.7 0.0000 0.0000
17:31 21.7 4.3 32 153 0.3 0.8 1014.7 0.0000 0.0000
17:41 21.8 3.9 31 123 0.3 0.8 1014.7 0.0000 0.0000
17:51 21.4 2.7 29 90 0.3 0.8 1014.9 0.0000 0.0000
18:01 20.9 2.2 29 270 1.1 1.7 1014.9 0.0000 0.0000
18:11 20.5 1.9 29 270 1.1 1.7 1015 0.0000 0.0000
18:21 20.4 2.7 31 270 0.8 1.4 1015 0.0000 0.0000
18:32 20.1 1.5 29 270 0.8 1.4 1015 0.0000 0.0000
18:42 19.7 1.2 29 270 0.8 1.4 1014.9 0.0000 0.0000
18:51 19.4 1.4 30 270 0.8 1.7 1014.9 0.0000 0.0000
19:01 19.3 2.6 33 270 0.8 1.4 1015 0.0000 0.0000
19:12 19.4 1.4 30 270 0.8 1.1 1015 0.0000 0.0000
19:22 19.1 1.6 31 270 0.8 1.4 1015 0.0000 0.0000
19:32 18.8 1.3 31 270 0.8 1.1 1015 0.0000 0.0000
19:42 19.2 2.1 32 270 0.8 1.1 1015 0.0000 0.0000
19:53 18.7 2.1 33 259 0.8 1.4 1015.1 0.0000 0.0000
20:02 18.3 2.2 34 270 0.8 1.4 1015.1 0.0000 0.0000
20:12 17.9 1.8 34 259 0.8 1.4 1015.1 0.0000 0.0000
20:23 18.3 2.2 34 270 0.6 1.1 1015.1 0.0000 0.0000
20:33 17.9 2.2 35 270 0.6 1.1 1015.1 0.0000 0.0000
20:43 17.6 2 35 270 0.6 1.1 1015.1 0.0000 0.0000
20:53 17.9 2.6 36 270 0.6 1.1 1015.2 0.0000 0.0000
21:04 17.8 1.7 34 270 0.6 1.1 1015.1 0.0000 0.0000
21:13 17.5 1.5 34 270 0.6 1.1 1015.1 0.0000 0.0000
21:23 17.2 1.2 34 270 0.6 1.1 1015.1 0.0000 0.0000
21:34 16.9 1 34 270 0.6 1.1 1015.2 0.0000 0.0000
21:44 17 2.2 37 270 0.6 1.1 1015.2 0.0000 0.0000
21:54 16.9 1.4 35 270 0.6 1.1 1015.2 0.0000 0.0000
22:04 16.6 1.5 36 270 0.6 1.1 1015.2 0.0000 0.0000
22:15 16.3 1.2 36 270 0.6 1.1 1015.1 0.0000 0.0000
22:24 16.7 2.3 38 270 0.6 0.8 1015.2 0.0000 0.0000
22:34 16.3 1.2 36 270 0.6 1.1 1015.2 0.0000 0.0000
22:44 15.8 1.2 37 270 0.8 1.1 1015.2 0.0000 0.0000
22:55 15.5 0.9 37 270 0.8 1.4 1015.1 0.0000 0.0000
23:05 15.3 1.1 38 270 0.6 1.1 1015.2 0.0000 0.0000
23:15 15.1 0.9 38 270 0.6 1.1 1015.2 0.0000 0.0000
23:25 14.9 0.7 38 270 0.6 1.1 1015.3 0.0000 0.0000
23:35 14.8 1 39 270 0.6 1.1 1015.3 0.0000 0.0000
23:45 14.7 0.9 39 270 0.6 1.1 1015.4 0.0000 0.0000
23:55 14.5 0.7 39 270 0.6 1.1 1015.4 0.0000 0.0000

DAY STATISTIC

2019-02-18
TEMPERATURE
AVERAGE
17.0
HIGH
26.1
15:19
LOW
10.8
08:03
PRESSURE
AVERAGE
1017.0
HIGH
1019.4
00:08
LOW
1014.7
17:21
DEWPOINT
AVERAGE
1.9
HIGH
5.9
12:57
LOW
-1.3
04:41
HUMIDITY
AVERAGE
37
HIGH
49
06:01
LOW
26
15:39
WIND SPEED
AVERAGE
0.5
HIGH
1.1
18:01
WIND GUST
AVERAGE
0.9
HIGH
1.7
18:01
WIND DIRECTION
PREVAILING
W
60.7%
N
0.0
NE
0.7
E
14.3
SE
5.7
S
7.1
SW
7.1
W
60.7
NW
1.4
PRECIPITATION
RAIN HOUR
0.0
RAIN DAY
0.0
TEMPERATURE (°C)
LOW
10.8
HIGH
26.1
AVERAGE
17.0
PRESSURE (hpa)
LOW
1014.7
HIGH
1019.4
AVERAGE
1017.0
DEVICE